createdAt,value
2022-08-26T00:02:00.198Z,100882.81
2022-08-26T00:04:28.799Z,100882.81
2022-08-26T00:06:57.142Z,100882.81
2022-08-26T00:09:26.376Z,100888.34
2022-08-26T00:11:55.421Z,100885.03
2022-08-26T00:14:29.579Z,100886.84
2022-08-26T00:17:00.540Z,100886.34
2022-08-26T00:19:28.456Z,100892.38
2022-08-26T00:21:56.326Z,100891.53
2022-08-26T00:24:24.851Z,100886.34
2022-08-26T00:26:53.724Z,100884.63
2022-08-26T00:29:21.777Z,100887.75
2022-08-26T00:31:51.559Z,100885.94
2022-08-26T00:34:20.873Z,100881.38
2022-08-26T00:36:49.357Z,100880.66
2022-08-26T00:39:20.925Z,100888.97
2022-08-26T00:41:50.408Z,100881.72
2022-08-26T00:44:19.137Z,100887.03
2022-08-26T00:46:52.003Z,100876.22
2022-08-26T00:49:25.830Z,100875.44
2022-08-26T00:51:56.508Z,100872.72
2022-08-26T00:54:28.099Z,100873.72
2022-08-26T00:57:01.335Z,100871.03
2022-08-26T00:59:32.774Z,100872.72
2022-08-26T01:02:02.795Z,100864.84
2022-08-26T01:04:34.979Z,100864.75
2022-08-26T01:07:05.826Z,100869.63
2022-08-26T01:09:34.207Z,100865.31
2022-08-26T01:12:03.927Z,100862.78
2022-08-26T01:14:34.932Z,100856.63
2022-08-26T01:17:07.410Z,100862.91
2022-08-26T01:19:43.417Z,100857.06
2022-08-26T01:22:17.126Z,100861.88
2022-08-26T01:24:50.192Z,100858.19
2022-08-26T01:27:20.604Z,100865.34
2022-08-26T01:29:50.321Z,100866.63
2022-08-26T01:32:24.718Z,100865.66
2022-08-26T01:34:54.270Z,100870.19
2022-08-26T01:37:26.949Z,100865.41
2022-08-26T01:39:57.595Z,100861.75
2022-08-26T01:42:28.507Z,100861.75
2022-08-26T01:45:00.530Z,100869.09
2022-08-26T01:47:32.319Z,100867.16
2022-08-26T01:50:06.813Z,100861.88
2022-08-26T01:52:39.442Z,100866.19
2022-08-26T01:55:10.130Z,100858.28
2022-08-26T01:57:39.329Z,100860.13
2022-08-26T02:00:11.726Z,100867.16
2022-08-26T02:02:41.779Z,100868.22
2022-08-26T02:05:15.208Z,100862.72
2022-08-26T02:07:44.266Z,100861.75
2022-08-26T02:10:14.349Z,100858.28
2022-08-26T02:12:42.523Z,100851.59
2022-08-26T02:15:13.524Z,100866.31
2022-08-26T02:17:46.669Z,100857.88
2022-08-26T02:20:18.920Z,100855.19
2022-08-26T02:22:47.491Z,100855.31
2022-08-26T02:25:21.499Z,100852.94
2022-08-26T02:27:50.811Z,100867.41
2022-08-26T02:30:22.204Z,100856.59
2022-08-26T02:32:51.752Z,100857.03
2022-08-26T02:35:25.979Z,100851.84
2022-08-26T02:37:54.622Z,100850.78
2022-08-26T02:40:27.188Z,100846.69
2022-08-26T02:42:56.906Z,100854.69
2022-08-26T02:45:26.175Z,100854.88
2022-08-26T02:47:55.698Z,100852.00
2022-08-26T02:50:25.099Z,100857.91
2022-08-26T02:52:53.572Z,100853.47
2022-08-26T02:55:24.699Z,100842.91
2022-08-26T02:57:52.767Z,100847.56
2022-08-26T03:00:21.015Z,100844.94
2022-08-26T03:02:48.804Z,100836.50
2022-08-26T03:05:19.695Z,100837.38
2022-08-26T03:07:47.969Z,100835.75
2022-08-26T03:10:16.454Z,100834.78
2022-08-26T03:12:47.514Z,100833.03
2022-08-26T03:15:18.488Z,100832.50
2022-08-26T03:17:48.077Z,100833.47
2022-08-26T03:20:17.483Z,100830.78
2022-08-26T03:22:46.192Z,100826.13
2022-08-26T03:25:16.548Z,100828.72
2022-08-26T03:27:45.961Z,100819.97
2022-08-26T03:30:32.597Z,100823.66
2022-08-26T03:33:01.161Z,100830.00
2022-08-26T03:35:29.413Z,100824.38
2022-08-26T03:37:57.342Z,100820.94
2022-08-26T03:40:25.721Z,100817.69
2022-08-26T03:42:58.528Z,100825.47
2022-08-26T03:45:28.351Z,100821.13
2022-08-26T03:47:57.883Z,100818.44
2022-08-26T03:50:27.208Z,100822.22
2022-08-26T03:52:56.361Z,100826.31
2022-08-26T03:55:26.920Z,100831.59
2022-08-26T03:57:55.788Z,100824.91
2022-08-26T04:00:25.111Z,100822.53
2022-08-26T04:02:53.588Z,100820.78
2022-08-26T04:05:23.522Z,100819.72
2022-08-26T04:07:51.649Z,100818.94
2022-08-26T04:10:29.185Z,100815.19
2022-08-26T04:12:58.946Z,100823.50
2022-08-26T04:15:28.789Z,100812.03
2022-08-26T04:17:57.569Z,100823.16
2022-08-26T04:20:26.037Z,100814.84
2022-08-26T04:22:54.203Z,100823.81
2022-08-26T04:25:22.489Z,100817.84
2022-08-26T04:27:52.039Z,100816.97
2022-08-26T04:30:20.293Z,100811.78
2022-08-26T04:32:50.520Z,100823.66
2022-08-26T04:35:20.849Z,100831.63
2022-08-26T04:37:53.414Z,100818.91
2022-08-26T04:40:21.621Z,100826.06
2022-08-26T04:42:50.209Z,100828.66
2022-08-26T04:45:19.052Z,100830.16
2022-08-26T04:47:56.236Z,100830.06
2022-08-26T04:50:25.669Z,100821.75
2022-08-26T04:52:55.000Z,100820.69
2022-08-26T04:55:25.311Z,100823.50
2022-08-26T04:58:08.714Z,100814.44
2022-08-26T05:00:38.494Z,100814.00
2022-08-26T05:03:10.465Z,100818.97
2022-08-26T05:05:41.014Z,100822.22
2022-08-26T05:08:09.973Z,100822.22
2022-08-26T05:10:43.565Z,100814.88
2022-08-26T05:13:15.155Z,100820.50
2022-08-26T05:15:45.036Z,100826.09
2022-08-26T05:18:16.375Z,100828.03
2022-08-26T05:20:46.263Z,100824.16
2022-08-26T05:23:15.530Z,100828.38
2022-08-26T05:25:47.030Z,100824.78
2022-08-26T05:28:17.693Z,100823.84
2022-08-26T05:30:46.551Z,100823.72
2022-08-26T05:33:16.889Z,100823.31
2022-08-26T05:35:46.227Z,100820.16
2022-08-26T05:38:16.251Z,100823.31
2022-08-26T05:40:46.364Z,100824.94
2022-08-26T05:43:14.688Z,100836.50
2022-08-26T05:45:45.985Z,100829.38
2022-08-26T05:48:16.858Z,100830.44
2022-08-26T05:50:48.139Z,100832.28
2022-08-26T05:53:18.526Z,100828.59
2022-08-26T05:55:55.061Z,100828.72
2022-08-26T05:58:24.503Z,100832.81
2022-08-26T06:00:59.776Z,100835.09
2022-08-26T06:03:29.922Z,100826.59
2022-08-26T06:05:58.153Z,100842.38
2022-08-26T06:08:26.086Z,100841.50
2022-08-26T06:10:56.429Z,100843.88
2022-08-26T06:13:26.759Z,100857.59
2022-08-26T06:15:56.149Z,100847.97
2022-08-26T06:18:27.372Z,100858.13
2022-08-26T06:20:58.444Z,100845.81
2022-08-26T06:23:46.448Z,100842.56
2022-08-26T06:26:15.814Z,100845.81
2022-08-26T06:28:45.381Z,100841.69
2022-08-26T06:31:14.324Z,100843.00
2022-08-26T06:33:43.022Z,100843.66
2022-08-26T06:36:17.229Z,100854.56
2022-08-26T06:38:47.418Z,100852.50
2022-08-26T06:41:15.263Z,100849.38
2022-08-26T06:43:43.516Z,100844.28
2022-08-26T06:46:13.630Z,100855.31
2022-08-26T06:48:44.847Z,100854.28
2022-08-26T06:51:16.810Z,100863.66
2022-08-26T06:53:47.025Z,100849.97
2022-08-26T06:56:17.484Z,100846.56
2022-08-26T06:58:45.560Z,100851.34
2022-08-26T07:01:19.675Z,100863.28
2022-08-26T07:03:49.774Z,100856.47
2022-08-26T07:06:20.519Z,100854.63
2022-08-26T07:08:48.506Z,100848.69
2022-08-26T07:11:16.861Z,100856.59
2022-08-26T07:13:44.769Z,100868.16
2022-08-26T07:16:17.688Z,100867.19
2022-08-26T07:18:46.312Z,100870.41
2022-08-26T07:21:16.620Z,100857.91
2022-08-26T07:23:48.897Z,100854.00
2022-08-26T07:26:19.808Z,100855.84
2022-08-26T07:28:50.504Z,100868.72
2022-08-26T07:31:23.706Z,100864.81
2022-08-26T07:33:52.369Z,100862.63
2022-08-26T07:36:22.206Z,100867.81
2022-08-26T07:38:52.296Z,100856.63
2022-08-26T07:41:22.682Z,100860.88
2022-08-26T07:43:51.342Z,100862.56
2022-08-26T07:46:27.180Z,100878.19
2022-08-26T07:48:56.746Z,100876.09
2022-08-26T07:51:24.968Z,100874.91
2022-08-26T07:53:55.212Z,100874.22
2022-08-26T07:56:24.027Z,100875.44
2022-08-26T07:58:54.126Z,100872.22
2022-08-26T08:01:23.570Z,100877.09
2022-08-26T08:03:52.131Z,100882.00
2022-08-26T08:06:20.407Z,100888.63
2022-08-26T08:08:50.767Z,100886.44
2022-08-26T08:11:21.584Z,100883.63
2022-08-26T08:13:56.170Z,100882.91
2022-08-26T08:16:25.129Z,100876.94
2022-08-26T08:18:54.424Z,100870.31
2022-08-26T08:21:24.403Z,100874.31
2022-08-26T08:23:53.139Z,100872.69
2022-08-26T08:26:23.350Z,100880.31
2022-08-26T08:28:51.734Z,100881.19
2022-08-26T08:31:38.701Z,100886.38
2022-08-26T08:34:09.344Z,100889.94
2022-08-26T08:36:37.203Z,100880.06
2022-08-26T08:39:06.418Z,100878.22
2022-08-26T08:41:57.765Z,100868.13
2022-08-26T08:46:59.354Z,100865.16
2022-08-26T08:49:29.232Z,100874.78
2022-08-26T08:52:02.460Z,100878.84
2022-08-26T08:54:33.885Z,100880.34
2022-08-26T08:57:11.999Z,100877.09
2022-08-26T08:59:47.546Z,100867.22
2022-08-26T09:02:25.266Z,100865.88
2022-08-26T09:05:06.541Z,100865.47
2022-08-26T09:07:39.600Z,100863.13
2022-08-26T09:10:33.265Z,100853.53
2022-08-26T09:13:07.210Z,100861.16
2022-08-26T09:15:46.585Z,100847.50
2022-08-26T09:18:25.755Z,100853.28
2022-08-26T09:20:59.158Z,100848.56
2022-08-26T09:23:27.758Z,100850.13
2022-08-26T09:25:59.417Z,100844.38
2022-08-26T09:28:31.092Z,100854.69
2022-08-26T09:31:11.515Z,100853.59
2022-08-26T09:33:41.173Z,100846.16
2022-08-26T09:36:24.844Z,100855.13
2022-08-26T09:38:54.095Z,100855.31
2022-08-26T09:41:31.534Z,100846.38
2022-08-26T09:44:20.758Z,100840.59
2022-08-26T09:46:56.503Z,100840.38
2022-08-26T09:49:32.676Z,100832.38
2022-08-26T09:52:21.726Z,100838.16
2022-08-26T09:55:04.653Z,100829.56
2022-08-26T09:57:35.366Z,100829.47
2022-08-26T10:00:25.571Z,100823.44
2022-08-26T10:02:57.934Z,100831.44
2022-08-26T10:05:32.968Z,100826.16
2022-08-26T10:08:02.097Z,100821.03
2022-08-26T10:10:34.744Z,100823.06
2022-08-26T10:13:10.400Z,100820.19
2022-08-26T10:15:50.625Z,100811.75
2022-08-26T10:18:23.678Z,100813.91
2022-08-26T10:20:57.366Z,100802.31
2022-08-26T10:23:29.271Z,100803.72
2022-08-26T10:26:03.477Z,100794.38
2022-08-26T10:28:38.171Z,100783.22
2022-08-26T10:31:14.781Z,100793.75
2022-08-26T10:33:43.919Z,100782.13
2022-08-26T10:36:30.912Z,100771.34
2022-08-26T10:39:00.798Z,100765.06
2022-08-26T10:41:34.789Z,100763.22
2022-08-26T10:44:04.540Z,100755.53
2022-08-26T10:46:41.873Z,100751.34
2022-08-26T10:49:13.050Z,100751.78
2022-08-26T10:51:48.345Z,100760.38
2022-08-26T10:54:21.502Z,100756.00
2022-08-26T10:56:58.476Z,100756.56
2022-08-26T10:59:39.244Z,100751.78
2022-08-26T11:02:17.519Z,100746.25
2022-08-26T11:04:52.548Z,100749.00
2022-08-26T11:07:33.926Z,100748.38
2022-08-26T11:10:07.857Z,100739.06
2022-08-26T11:12:54.821Z,100733.72
2022-08-26T11:16:11.268Z,100729.59
2022-08-26T11:18:46.836Z,100719.28
2022-08-26T11:21:49.464Z,100732.25
2022-08-26T11:24:55.535Z,100725.22
2022-08-26T11:28:04.534Z,100723.59
2022-08-26T11:30:57.795Z,100729.22
2022-08-26T11:34:01.053Z,100723.75
2022-08-26T11:36:43.579Z,100712.09
2022-08-26T11:39:19.983Z,100702.78
2022-08-26T11:41:52.637Z,100692.44
2022-08-26T11:44:23.401Z,100686.59
2022-08-26T11:47:00.491Z,100684.88
2022-08-26T11:49:31.506Z,100675.97
2022-08-26T11:52:13.645Z,100687.44
2022-08-26T11:54:41.947Z,100689.16
2022-08-26T11:57:14.537Z,100682.81
2022-08-26T11:59:43.437Z,100675.00
2022-08-26T12:02:16.782Z,100675.13
2022-08-26T12:04:50.410Z,100666.97
2022-08-26T12:07:24.711Z,100665.03
2022-08-26T12:09:56.534Z,100656.44
2022-08-26T12:12:31.755Z,100653.22
2022-08-26T12:15:10.606Z,100648.28
2022-08-26T12:17:40.742Z,100641.47
2022-08-26T12:20:31.212Z,100641.34
2022-08-26T12:23:00.204Z,100638.13
2022-08-26T12:25:35.968Z,100641.56
2022-08-26T12:28:06.568Z,100632.50
2022-08-26T12:30:34.571Z,100634.44
2022-08-26T12:33:22.840Z,100635.75
2022-08-26T12:35:56.294Z,100647.53
2022-08-26T12:38:26.002Z,100643.44
2022-08-26T12:40:54.155Z,100643.28
2022-08-26T12:43:43.263Z,100643.22
2022-08-26T12:46:13.791Z,100643.28
2022-08-26T12:48:44.249Z,100634.06
2022-08-26T12:51:24.609Z,100633.78
2022-08-26T12:53:53.657Z,100632.97
2022-08-26T12:56:32.443Z,100636.19
2022-08-26T12:59:11.249Z,100627.75
2022-08-26T13:01:44.148Z,100627.25
2022-08-26T13:04:36.165Z,100622.72
2022-08-26T13:07:24.241Z,100613.47
2022-08-26T13:09:53.970Z,100607.75
2022-08-26T13:12:27.825Z,100601.31
2022-08-26T13:14:56.035Z,100611.56
2022-08-26T13:17:23.998Z,100604.03
2022-08-26T13:19:52.118Z,100604.66
2022-08-26T13:22:24.635Z,100598.84
2022-08-26T13:24:55.276Z,100592.44
2022-08-26T13:27:26.271Z,100599.41
2022-08-26T13:29:55.769Z,100599.47
2022-08-26T13:32:27.222Z,100619.06
2022-08-26T13:34:57.412Z,100621.91
2022-08-26T13:37:34.532Z,100626.84
2022-08-26T13:40:03.176Z,100630.56
2022-08-26T13:42:31.324Z,100636.91
2022-08-26T13:44:59.810Z,100633.19
2022-08-26T13:47:28.660Z,100640.69
2022-08-26T13:49:57.230Z,100641.34
2022-08-26T13:52:31.046Z,100637.44
2022-08-26T13:55:00.694Z,100619.50
2022-08-26T13:57:30.064Z,100623.41
2022-08-26T14:00:00.169Z,100617.69
2022-08-26T14:02:28.666Z,100615.41
2022-08-26T14:04:56.850Z,100619.25
2022-08-26T14:07:26.856Z,100627.09
2022-08-26T14:09:55.034Z,100623.66
2022-08-26T14:12:23.343Z,100617.47
2022-08-26T14:14:51.291Z,100609.00
2022-08-26T14:17:22.834Z,100601.66
2022-08-26T14:19:51.822Z,100605.50
2022-08-26T14:22:23.043Z,100599.88
2022-08-26T14:24:52.351Z,100597.50
2022-08-26T14:27:20.472Z,100608.66
2022-08-26T14:29:48.399Z,100609.97
2022-08-26T14:32:22.990Z,100599.03
2022-08-26T14:34:51.872Z,100594.19
2022-08-26T14:37:19.917Z,100590.38
2022-08-26T14:39:48.242Z,100591.81
2022-08-26T14:42:20.638Z,100597.28
2022-08-26T14:44:53.817Z,100591.81
2022-08-26T14:47:22.029Z,100582.63
2022-08-26T14:49:50.271Z,100586.38
2022-08-26T14:52:18.887Z,100580.88
2022-08-26T14:54:45.773Z,100578.50
2022-08-26T14:57:15.235Z,100579.53
2022-08-26T14:59:49.915Z,100580.91
2022-08-26T15:02:32.368Z,100577.81
2022-08-26T15:05:02.151Z,100575.94
2022-08-26T15:07:30.216Z,100571.69
2022-08-26T15:09:58.343Z,100581.91
2022-08-26T15:12:26.260Z,100579.53
2022-08-26T15:14:55.661Z,100587.38
2022-08-26T15:17:23.984Z,100585.66
2022-08-26T15:19:52.319Z,100588.72
2022-08-26T15:22:20.249Z,100595.91
2022-08-26T15:24:48.174Z,100595.44
2022-08-26T15:27:21.742Z,100596.09
2022-08-26T15:29:49.885Z,100602.22
2022-08-26T15:32:19.380Z,100593.34
2022-08-26T15:34:47.354Z,100591.97
2022-08-26T15:37:15.347Z,100588.53
2022-08-26T15:39:44.151Z,100592.31
2022-08-26T15:42:12.220Z,100593.16
2022-08-26T15:44:44.052Z,100598.72
2022-08-26T15:47:12.849Z,100603.28
2022-08-26T15:49:42.661Z,100593.19
2022-08-26T15:52:10.634Z,100603.66
2022-08-26T15:54:39.618Z,100594.13
2022-08-26T15:57:11.492Z,100593.91
2022-08-26T15:59:40.388Z,100589.56
2022-08-26T16:02:09.168Z,100595.41
2022-08-26T16:04:37.125Z,100593.00
2022-08-26T16:07:06.648Z,100591.59
2022-08-26T16:09:34.499Z,100595.28
2022-08-26T16:12:02.496Z,100602.97
2022-08-26T16:14:30.683Z,100604.81
2022-08-26T16:16:58.733Z,100621.63
2022-08-26T16:19:26.713Z,100628.09
2022-08-26T16:21:54.644Z,100630.25
2022-08-26T16:24:30.372Z,100644.59
2022-08-26T16:26:58.837Z,100656.31
2022-08-26T16:29:26.984Z,100660.06
2022-08-26T16:31:55.647Z,100668.59
2022-08-26T16:34:23.795Z,100672.00
2022-08-26T16:36:52.119Z,100670.41
2022-08-26T16:39:20.089Z,100676.09
2022-08-26T16:41:49.507Z,100692.44
2022-08-26T16:44:17.774Z,100689.81
2022-08-26T16:46:46.016Z,100694.94
2022-08-26T16:49:13.996Z,100699.72
2022-08-26T16:51:41.974Z,100691.22
2022-08-26T16:54:10.021Z,100692.50
2022-08-26T16:56:38.479Z,100693.41
2022-08-26T16:59:23.527Z,100698.31
2022-08-26T17:01:51.578Z,100694.00
2022-08-26T17:04:19.945Z,100691.06
2022-08-26T17:06:48.072Z,100700.19
2022-08-26T17:09:16.208Z,100689.75
2022-08-26T17:11:44.530Z,100687.09
2022-08-26T17:14:14.269Z,100694.47
2022-08-26T17:16:42.351Z,100686.59
2022-08-26T17:19:10.759Z,100681.81
2022-08-26T17:21:40.746Z,100688.81
2022-08-26T17:24:08.616Z,100675.03
2022-08-26T17:26:37.743Z,100675.63
2022-08-26T17:29:06.179Z,100682.97
2022-08-26T17:31:35.440Z,100688.19
2022-08-26T17:34:03.614Z,100687.69
2022-08-26T17:36:31.411Z,100698.03
2022-08-26T17:38:59.815Z,100696.63
2022-08-26T17:41:28.580Z,100711.66
2022-08-26T17:43:57.024Z,100714.47
2022-08-26T17:46:25.782Z,100727.13
2022-08-26T17:48:55.474Z,100736.28
2022-08-26T17:51:24.501Z,100733.56
2022-08-26T17:53:53.207Z,100726.34
2022-08-26T17:56:25.521Z,100735.00
2022-08-26T17:58:55.050Z,100732.81
2022-08-26T18:01:26.791Z,100736.72
2022-08-26T18:04:00.318Z,100732.41
2022-08-26T18:06:30.322Z,100725.38
2022-08-26T18:08:58.234Z,100730.66
2022-08-26T18:11:27.023Z,100740.19
2022-08-26T18:13:54.878Z,100741.38
2022-08-26T18:16:22.774Z,100743.50
2022-08-26T18:18:53.361Z,100740.25
2022-08-26T18:21:24.626Z,100762.19
2022-08-26T18:23:53.981Z,100760.06
2022-08-26T18:26:25.258Z,100771.06
2022-08-26T18:28:53.411Z,100766.69
2022-08-26T18:31:22.031Z,100774.06
2022-08-26T18:33:50.037Z,100775.59
2022-08-26T18:36:19.971Z,100771.59
2022-08-26T18:38:50.717Z,100772.56
2022-08-26T18:41:21.453Z,100762.19
2022-08-26T18:43:50.663Z,100771.25
2022-08-26T18:46:19.877Z,100770.16
2022-08-26T18:48:50.930Z,100775.28
2022-08-26T18:51:21.123Z,100777.09
2022-08-26T18:53:51.386Z,100774.47
2022-08-26T18:56:19.963Z,100773.19
2022-08-26T18:58:47.964Z,100779.13
2022-08-26T19:01:16.884Z,100772.31
2022-08-26T19:03:45.336Z,100777.94
2022-08-26T19:06:15.756Z,100775.97
2022-08-26T19:08:44.634Z,100772.09
2022-08-26T19:11:14.475Z,100765.22
2022-08-26T19:13:42.439Z,100782.28
2022-08-26T19:16:16.266Z,100773.41
2022-08-26T19:18:44.217Z,100785.69
2022-08-26T19:21:12.196Z,100796.50
2022-08-26T19:23:40.626Z,100797.81
2022-08-26T19:26:09.344Z,100796.06
2022-08-26T19:28:40.837Z,100793.50
2022-08-26T19:31:10.278Z,100792.44
2022-08-26T19:33:39.558Z,100791.97
2022-08-26T19:36:12.668Z,100793.28
2022-08-26T19:38:42.909Z,100798.94
2022-08-26T19:41:12.541Z,100796.31
2022-08-26T19:43:41.875Z,100790.03
2022-08-26T19:46:11.871Z,100799.03
2022-08-26T19:48:40.058Z,100800.66
2022-08-26T19:51:08.263Z,100795.66
2022-08-26T19:53:36.084Z,100797.06
2022-08-26T19:56:04.317Z,100802.38
2022-08-26T19:58:32.252Z,100799.81
2022-08-26T20:01:01.669Z,100811.66
2022-08-26T20:03:29.554Z,100813.19
2022-08-26T20:05:57.460Z,100800.84
2022-08-26T20:08:25.553Z,100806.56
2022-08-26T20:10:53.998Z,100807.78
2022-08-26T20:13:22.239Z,100810.97
2022-08-26T20:15:50.215Z,100800.94
2022-08-26T20:18:36.955Z,100795.19
2022-08-26T20:21:22.783Z,100794.38
2022-08-26T20:23:52.506Z,100798.69
2022-08-26T20:26:20.484Z,100795.22
2022-08-26T20:28:51.033Z,100797.19
2022-08-26T20:31:19.639Z,100810.38
2022-08-26T20:33:50.616Z,100804.41
2022-08-26T20:36:20.225Z,100804.56
2022-08-26T20:38:48.612Z,100808.53
2022-08-26T20:41:17.600Z,100800.84
2022-08-26T20:43:46.537Z,100804.56
2022-08-26T20:46:18.761Z,100798.72
2022-08-26T20:48:49.918Z,100802.91
2022-08-26T20:51:19.356Z,100804.31
2022-08-26T20:53:47.674Z,100808.53
2022-08-26T20:56:23.569Z,100815.13
2022-08-26T20:58:53.375Z,100830.47
2022-08-26T21:01:26.008Z,100832.19
2022-08-26T21:03:56.875Z,100826.66
2022-08-26T21:06:26.966Z,100842.25
2022-08-26T21:08:55.494Z,100842.84
2022-08-26T21:11:23.848Z,100834.34
2022-08-26T21:14:16.762Z,100839.59
2022-08-26T21:16:41.301Z,100838.97
2022-08-26T21:19:13.206Z,100847.34
2022-08-26T21:21:41.810Z,100852.81
2022-08-26T21:24:10.145Z,100846.00
2022-08-26T21:26:38.390Z,100849.22
2022-08-26T21:29:09.681Z,100854.50
2022-08-26T21:31:44.907Z,100853.84
2022-08-26T21:34:15.505Z,100848.88
2022-08-26T21:36:43.533Z,100854.56
2022-08-26T21:39:12.377Z,100846.25
2022-08-26T21:41:41.297Z,100853.66
2022-08-26T21:44:10.327Z,100855.72
2022-08-26T21:46:38.444Z,100860.84
2022-08-26T21:49:08.521Z,100863.28
2022-08-26T21:51:39.458Z,100867.13
2022-08-26T21:54:11.141Z,100872.09
2022-08-26T21:56:42.259Z,100861.47
2022-08-26T21:59:10.804Z,100864.50
2022-08-26T22:01:38.750Z,100868.47
2022-08-26T22:04:08.793Z,100860.38
2022-08-26T22:06:42.171Z,100861.53
2022-08-26T22:09:10.405Z,100864.81
2022-08-26T22:11:38.506Z,100861.81
2022-08-26T22:14:06.486Z,100865.91
2022-08-26T22:16:34.691Z,100869.56
2022-08-26T22:19:02.898Z,100863.53
2022-08-26T22:21:31.023Z,100866.41
2022-08-26T22:24:00.539Z,100874.22
2022-08-26T22:26:32.856Z,100868.72
2022-08-26T22:29:02.294Z,100869.28
2022-08-26T22:31:37.779Z,100872.00
2022-08-26T22:34:08.747Z,100874.81
2022-08-26T22:36:43.739Z,100872.38
2022-08-26T22:39:14.975Z,100873.97
2022-08-26T22:41:44.120Z,100872.44
2022-08-26T22:44:12.763Z,100868.09
2022-08-26T22:46:42.484Z,100872.59
2022-08-26T22:49:12.498Z,100866.94
2022-08-26T22:51:40.620Z,100862.16
2022-08-26T22:54:08.688Z,100868.19
2022-08-26T22:56:38.507Z,100866.28
2022-08-26T22:59:07.915Z,100866.47
2022-08-26T23:01:37.706Z,100860.91
2022-08-26T23:04:07.354Z,100865.75
2022-08-26T23:06:36.783Z,100871.09
2022-08-26T23:09:05.689Z,100872.59
2022-08-26T23:11:33.618Z,100866.28
2022-08-26T23:14:06.292Z,100872.25
2022-08-26T23:16:37.863Z,100863.69
2022-08-26T23:19:08.047Z,100856.50
2022-08-26T23:21:36.537Z,100854.66
2022-08-26T23:24:05.151Z,100848.78
2022-08-26T23:26:33.215Z,100839.13
2022-08-26T23:29:03.307Z,100843.19
2022-08-26T23:31:31.483Z,100852.25
2022-08-26T23:34:16.937Z,100846.91
2022-08-26T23:36:45.198Z,100845.91
2022-08-26T23:39:15.079Z,100839.53
2022-08-26T23:41:43.396Z,100842.81
2022-08-26T23:44:13.013Z,100840.13
2022-08-26T23:46:41.321Z,100839.53
2022-08-26T23:49:09.493Z,100839.53
2022-08-26T23:51:56.015Z,100841.09
2022-08-26T23:54:23.998Z,100832.34
2022-08-26T23:56:51.791Z,100833.69
2022-08-26T23:59:22.221Z,100843.03
